Time;durP1;ratioP1;P1;durP2;ratioP2;P2;SDS_P1;SDS_P2;PMS_P1;PMS_P2;Temp;Humidity;BMP_temperature;BMP_pressure;BME280_temperature;BME280_humidity;BME280_pressure;Samples;Min_cycle;Max_cycle;Signal;HPM_P1;HPM_P2
2024/01/28 00:00:59;;;;;;;30.90;13.60;;;;;;;;;;5079093;28;20409;-83
2024/01/28 00:03:25;;;;;;;29.13;13.52;;;;;;;;;;5094504;28;20403;-83
2024/01/28 00:05:51;;;;;;;32.10;13.93;;;;;;;;;;5083095;28;20454;-83
2024/01/28 00:08:17;;;;;;;29.90;13.32;;;;;;;;;;5109781;27;20484;-82
2024/01/28 00:10:44;;;;;;;26.73;13.50;;;;;;;;;;5103092;28;20413;-83
2024/01/28 00:13:10;;;;;;;30.02;14.00;;;;;;;;;;5111517;28;20404;-83
2024/01/28 00:15:36;;;;;;;31.20;14.25;;;;;;;;;;5101211;28;20440;-83
2024/01/28 00:18:02;;;;;;;29.48;14.23;;;;;;;;;;5092308;28;20406;-83
2024/01/28 00:20:28;;;;;;;32.58;13.80;;;;;;;;;;5084440;28;20429;-83
2024/01/28 00:22:54;;;;;;;31.80;13.77;;;;;;;;;;5101935;28;20475;-83
2024/01/28 00:25:20;;;;;;;31.05;14.65;;;;;;;;;;5073555;28;20414;-83
2024/01/28 00:27:46;;;;;;;29.77;14.88;;;;;;;;;;5091131;28;20392;-83
2024/01/28 00:30:13;;;;;;;33.75;14.48;;;;;;;;;;5093164;28;20402;-83
2024/01/28 00:32:41;;;;;;;32.55;15.25;;;;;;;;;;5097018;28;20779;-83
2024/01/28 00:35:08;;;;;;;29.90;14.93;;;;;;;;;;5110121;28;20752;-83
2024/01/28 00:37:34;;;;;;;32.88;14.70;;;;;;;;;;5093093;28;20420;-83
2024/01/28 00:40:00;;;;;;;31.67;14.93;;;;;;;;;;5093349;28;20499;-83
2024/01/28 00:42:26;;;;;;;28.70;13.88;;;;;;;;;;5116959;27;20414;-83
2024/01/28 00:44:52;;;;;;;27.35;13.27;;;;;;;;;;5100464;28;20749;-83
2024/01/28 00:47:18;;;;;;;25.27;12.82;;;;;;;;;;5112107;27;20394;-86
2024/01/28 00:49:44;;;;;;;23.08;12.73;;;;;;;;;;5097141;28;20397;-85
2024/01/28 00:52:10;;;;;;;27.77;12.77;;;;;;;;;;5091369;28;20409;-85
2024/01/28 00:54:37;;;;;;;27.95;12.35;;;;;;;;;;5079765;28;20485;-85
2024/01/28 00:57:03;;;;;;;26.65;13.23;;;;;;;;;;5073288;28;20418;-85
2024/01/28 00:59:29;;;;;;;26.20;12.75;;;;;;;;;;5112946;27;20807;-87
2024/01/28 01:01:55;;;;;;;24.15;13.10;;;;;;;;;;5104249;28;20446;-87
2024/01/28 01:04:21;;;;;;;26.33;12.95;;;;;;;;;;5098176;28;20394;-86
2024/01/28 01:06:47;;;;;;;24.17;12.48;;;;;;;;;;5099267;28;20430;-86
2024/01/28 01:09:15;;;;;;;25.77;12.05;;;;;;;;;;5091002;28;20405;-86
2024/01/28 01:11:43;;;;;;;28.65;12.88;;;;;;;;;;5115228;27;20400;-86
2024/01/28 01:14:09;;;;;;;26.35;12.10;;;;;;;;;;5126735;27;20416;-87
2024/01/28 01:16:36;;;;;;;24.65;12.63;;;;;;;;;;5074943;28;20783;-86
2024/01/28 01:19:02;;;;;;;26.97;12.37;;;;;;;;;;5076598;28;20425;-87
2024/01/28 01:21:28;;;;;;;24.55;12.40;;;;;;;;;;5112767;27;20405;-87
2024/01/28 01:23:54;;;;;;;25.53;12.50;;;;;;;;;;5110583;28;20811;-86
2024/01/28 01:26:20;;;;;;;27.77;12.38;;;;;;;;;;5091984;28;20401;-85
2024/01/28 01:28:46;;;;;;;25.13;11.98;;;;;;;;;;5093667;28;20394;-84
2024/01/28 01:31:12;;;;;;;27.40;12.23;;;;;;;;;;5093571;28;20437;-84
2024/01/28 01:33:38;;;;;;;25.42;12.65;;;;;;;;;;5102338;28;20416;-85
2024/01/28 01:36:06;;;;;;;27.67;12.55;;;;;;;;;;5093824;28;20729;-84
2024/01/28 01:38:32;;;;;;;25.08;12.80;;;;;;;;;;5106206;28;20408;-85
2024/01/28 01:40:58;;;;;;;25.35;12.63;;;;;;;;;;5127896;27;20420;-85
2024/01/28 01:43:24;;;;;;;26.60;12.80;;;;;;;;;;5093187;28;20398;-85
2024/01/28 01:45:52;;;;;;;25.30;12.10;;;;;;;;;;5073833;28;20743;-85
2024/01/28 01:48:19;;;;;;;26.25;11.85;;;;;;;;;;5119842;27;20414;-86
2024/01/28 01:50:45;;;;;;;22.33;11.68;;;;;;;;;;5090351;28;20404;-85
2024/01/28 01:53:12;;;;;;;27.55;12.30;;;;;;;;;;5075020;28;20890;-85
2024/01/28 01:55:39;;;;;;;26.92;11.77;;;;;;;;;;5090496;28;20455;-85
2024/01/28 01:58:07;;;;;;;23.67;11.53;;;;;;;;;;5095506;28;20438;-85
2024/01/28 02:00:34;;;;;;;23.67;11.60;;;;;;;;;;5104048;28;20422;-85
2024/01/28 02:03:01;;;;;;;28.95;11.55;;;;;;;;;;5086097;28;20419;-86
2024/01/28 02:05:27;;;;;;;26.25;11.80;;;;;;;;;;5116103;27;20424;-86
2024/01/28 02:07:54;;;;;;;24.60;11.02;;;;;;;;;;5095194;28;20894;-86
2024/01/28 02:10:22;;;;;;;25.05;11.50;;;;;;;;;;5112009;27;20471;-84
2024/01/28 02:12:51;;;;;;;24.20;11.43;;;;;;;;;;5100201;28;20405;-84
2024/01/28 02:15:17;;;;;;;21.40;10.93;;;;;;;;;;5080395;28;20739;-83
2024/01/28 02:17:43;;;;;;;24.95;12.05;;;;;;;;;;5109249;28;20497;-84
2024/01/28 02:20:10;;;;;;;24.60;11.05;;;;;;;;;;5108213;28;20424;-84
2024/01/28 02:22:36;;;;;;;23.20;11.60;;;;;;;;;;5088189;28;20400;-84
2024/01/28 02:25:03;;;;;;;23.13;11.50;;;;;;;;;;5099723;28;20790;-83
2024/01/28 02:27:30;;;;;;;25.65;11.73;;;;;;;;;;5090199;28;20432;-83
2024/01/28 02:29:56;;;;;;;27.02;12.88;;;;;;;;;;5073684;28;20464;-83
2024/01/28 02:32:22;;;;;;;26.98;13.10;;;;;;;;;;5093500;28;20972;-83
2024/01/28 02:34:48;;;;;;;27.55;12.60;;;;;;;;;;5089885;28;20410;-83
2024/01/28 02:37:14;;;;;;;32.75;13.50;;;;;;;;;;5098620;28;20482;-83
2024/01/28 02:39:40;;;;;;;26.20;12.93;;;;;;;;;;5088925;28;20429;-83
2024/01/28 02:42:07;;;;;;;26.23;13.15;;;;;;;;;;5077891;28;20882;-83
2024/01/28 02:44:33;;;;;;;28.07;13.50;;;;;;;;;;5110497;28;20409;-83
2024/01/28 02:47:01;;;;;;;26.67;13.35;;;;;;;;;;5107447;28;20402;-83
2024/01/28 02:49:27;;;;;;;22.63;13.10;;;;;;;;;;5131225;27;21000;-83
2024/01/28 02:51:53;;;;;;;25.83;14.23;;;;;;;;;;5110676;28;20398;-83
2024/01/28 02:54:22;;;;;;;26.98;13.52;;;;;;;;;;5125829;27;20428;-83
2024/01/28 02:56:49;;;;;;;32.15;14.40;;;;;;;;;;5103233;28;20736;-83
2024/01/28 02:59:15;;;;;;;28.52;13.73;;;;;;;;;;5094915;28;20986;-83
2024/01/28 03:01:45;;;;;;;31.88;14.73;;;;;;;;;;5123945;27;20899;-83
2024/01/28 03:04:11;;;;;;;25.33;13.80;;;;;;;;;;5121331;27;20879;-84
2024/01/28 03:06:37;;;;;;;27.65;14.00;;;;;;;;;;5109725;28;20893;-84
2024/01/28 03:09:04;;;;;;;29.55;13.68;;;;;;;;;;5097790;28;20410;-84
2024/01/28 03:11:30;;;;;;;27.50;14.40;;;;;;;;;;5077192;28;20422;-83
2024/01/28 03:13:57;;;;;;;27.33;13.93;;;;;;;;;;5118357;27;20396;-83
2024/01/28 03:16:23;;;;;;;27.30;14.00;;;;;;;;;;5130428;27;20401;-83
2024/01/28 03:18:49;;;;;;;25.70;14.73;;;;;;;;;;5107753;28;20474;-83
2024/01/28 03:21:15;;;;;;;28.55;13.98;;;;;;;;;;5097851;28;20463;-84
2024/01/28 03:23:42;;;;;;;26.03;13.97;;;;;;;;;;5077877;28;20397;-83
2024/01/28 03:26:11;;;;;;;26.08;14.48;;;;;;;;;;5116752;27;20801;-83
2024/01/28 03:28:37;;;;;;;26.08;14.18;;;;;;;;;;5095141;28;21607;-83
2024/01/28 03:31:03;;;;;;;26.02;13.63;;;;;;;;;;5093481;28;20745;-83
2024/01/28 03:33:30;;;;;;;28.90;14.33;;;;;;;;;;5110002;27;20402;-84
2024/01/28 03:35:56;;;;;;;26.75;14.15;;;;;;;;;;5093876;28;20402;-84
2024/01/28 03:38:22;;;;;;;24.40;14.18;;;;;;;;;;5097510;28;20412;-83
2024/01/28 03:40:48;;;;;;;28.42;13.77;;;;;;;;;;5088992;28;20449;-83
2024/01/28 03:43:14;;;;;;;26.33;13.43;;;;;;;;;;5121113;27;20398;-84
2024/01/28 03:45:40;;;;;;;25.83;13.57;;;;;;;;;;5087339;28;20910;-83
2024/01/28 03:48:07;;;;;;;31.48;14.60;;;;;;;;;;5098860;28;20399;-83
2024/01/28 03:50:33;;;;;;;24.42;12.98;;;;;;;;;;5079505;28;20442;-83
2024/01/28 03:52:59;;;;;;;27.27;13.48;;;;;;;;;;5112821;28;20415;-83
2024/01/28 03:55:26;;;;;;;25.90;13.43;;;;;;;;;;5101533;28;20784;-84
2024/01/28 03:57:52;;;;;;;25.15;13.80;;;;;;;;;;5083028;28;20400;-83
2024/01/28 04:00:18;;;;;;;28.15;13.27;;;;;;;;;;5085117;28;20428;-83
2024/01/28 04:02:44;;;;;;;23.27;12.95;;;;;;;;;;5090432;28;20472;-83
2024/01/28 04:05:11;;;;;;;25.27;12.83;;;;;;;;;;5119740;27;20530;-84
2024/01/28 04:07:37;;;;;;;26.42;13.13;;;;;;;;;;5093056;28;20999;-84
2024/01/28 04:10:03;;;;;;;25.33;12.70;;;;;;;;;;5104834;28;20409;-84
2024/01/28 04:12:29;;;;;;;25.48;12.48;;;;;;;;;;5112218;27;20434;-84
2024/01/28 04:14:55;;;;;;;20.25;12.38;;;;;;;;;;5089471;28;20908;-84
2024/01/28 04:17:21;;;;;;;25.33;12.65;;;;;;;;;;5094793;28;20417;-84
2024/01/28 04:19:47;;;;;;;23.30;13.18;;;;;;;;;;5104973;28;20986;-83
2024/01/28 04:22:14;;;;;;;24.20;13.10;;;;;;;;;;5108677;28;20427;-83
2024/01/28 04:24:40;;;;;;;24.83;12.55;;;;;;;;;;5093863;28;20880;-83
2024/01/28 04:27:06;;;;;;;25.30;12.93;;;;;;;;;;5108576;27;20405;-84
2024/01/28 04:29:32;;;;;;;26.15;13.38;;;;;;;;;;5108871;28;20750;-84
2024/01/28 04:31:58;;;;;;;26.77;13.05;;;;;;;;;;5109724;28;20400;-84
2024/01/28 04:34:25;;;;;;;25.23;12.77;;;;;;;;;;5126373;27;20465;-84
2024/01/28 04:36:51;;;;;;;28.95;13.40;;;;;;;;;;5113748;27;20429;-83
2024/01/28 04:39:18;;;;;;;22.90;12.80;;;;;;;;;;5107801;28;20463;-84
2024/01/28 04:41:44;;;;;;;23.38;12.75;;;;;;;;;;5120586;27;20400;-84
2024/01/28 04:44:10;;;;;;;28.80;13.07;;;;;;;;;;5094857;28;20404;-84
2024/01/28 04:46:36;;;;;;;25.33;12.68;;;;;;;;;;5114225;27;20398;-83
2024/01/28 04:49:03;;;;;;;25.67;12.52;;;;;;;;;;5090699;28;20451;-83
2024/01/28 04:51:30;;;;;;;21.25;12.35;;;;;;;;;;5096287;28;20959;-83
2024/01/28 04:53:57;;;;;;;23.83;12.70;;;;;;;;;;5095122;28;20392;-83
2024/01/28 04:56:23;;;;;;;29.00;12.55;;;;;;;;;;5107489;28;20419;-83
2024/01/28 04:58:49;;;;;;;26.70;12.90;;;;;;;;;;5102371;28;20405;-83
2024/01/28 05:01:15;;;;;;;24.13;12.90;;;;;;;;;;5109189;27;20773;-83
2024/01/28 05:03:41;;;;;;;25.08;12.77;;;;;;;;;;5128456;27;20403;-83
2024/01/28 05:06:09;;;;;;;25.85;12.98;;;;;;;;;;5091527;28;20399;-83
2024/01/28 05:08:35;;;;;;;28.45;13.15;;;;;;;;;;5073708;28;20412;-83
2024/01/28 05:11:01;;;;;;;26.00;12.93;;;;;;;;;;5091433;28;20405;-84
2024/01/28 05:13:27;;;;;;;23.67;13.02;;;;;;;;;;5073607;28;20758;-84
2024/01/28 05:15:53;;;;;;;24.85;13.40;;;;;;;;;;5111201;27;20396;-84
2024/01/28 05:18:20;;;;;;;27.95;14.00;;;;;;;;;;5077704;28;20413;-84
2024/01/28 05:20:47;;;;;;;23.52;13.23;;;;;;;;;;5101143;28;20423;-84
2024/01/28 05:23:13;;;;;;;26.65;13.40;;;;;;;;;;5111719;27;20411;-84
2024/01/28 05:25:39;;;;;;;29.17;14.00;;;;;;;;;;5090553;28;20953;-84
2024/01/28 05:28:07;;;;;;;27.67;14.00;;;;;;;;;;5105510;28;20787;-84
2024/01/28 05:30:33;;;;;;;27.40;14.30;;;;;;;;;;5092562;28;20423;-84
2024/01/28 05:32:59;;;;;;;25.95;13.55;;;;;;;;;;5082750;28;20396;-84
2024/01/28 05:35:25;;;;;;;27.88;13.85;;;;;;;;;;5111110;27;20752;-84
2024/01/28 05:37:52;;;;;;;29.40;14.15;;;;;;;;;;5117256;27;21076;-84
2024/01/28 05:40:19;;;;;;;28.10;14.55;;;;;;;;;;5094666;27;20423;-84
2024/01/28 05:42:45;;;;;;;38.83;14.25;;;;;;;;;;5092355;28;20396;-83
2024/01/28 05:45:11;;;;;;;25.30;13.63;;;;;;;;;;5126350;27;20438;-83
2024/01/28 05:47:37;;;;;;;27.15;13.85;;;;;;;;;;5080416;28;20476;-83
2024/01/28 05:50:04;;;;;;;25.50;14.07;;;;;;;;;;5088510;28;20396;-83
2024/01/28 05:52:30;;;;;;;23.65;13.68;;;;;;;;;;5075147;28;20400;-83
2024/01/28 05:54:56;;;;;;;23.25;14.27;;;;;;;;;;5123754;27;20402;-83
2024/01/28 05:57:22;;;;;;;23.13;13.45;;;;;;;;;;5108273;28;20402;-83
2024/01/28 05:59:49;;;;;;;23.77;14.15;;;;;;;;;;5090799;28;20414;-83
2024/01/28 06:02:15;;;;;;;26.03;15.50;;;;;;;;;;5091130;28;20416;-83
2024/01/28 06:04:41;;;;;;;26.63;14.60;;;;;;;;;;5090724;28;20448;-83
2024/01/28 06:07:08;;;;;;;24.38;14.75;;;;;;;;;;5123878;27;20401;-83
2024/01/28 06:09:34;;;;;;;28.55;15.90;;;;;;;;;;5108645;27;20405;-84
2024/01/28 06:12:00;;;;;;;26.27;15.48;;;;;;;;;;5087529;28;20404;-84
2024/01/28 06:14:27;;;;;;;29.08;15.15;;;;;;;;;;5111116;28;20471;-84
2024/01/28 06:16:53;;;;;;;26.00;14.20;;;;;;;;;;5111710;27;20428;-84
2024/01/28 06:19:19;;;;;;;28.08;14.82;;;;;;;;;;5093663;28;20407;-84
2024/01/28 06:21:46;;;;;;;25.48;14.02;;;;;;;;;;5102519;28;20408;-84
2024/01/28 06:24:12;;;;;;;31.42;15.52;;;;;;;;;;5086166;28;20394;-85
2024/01/28 06:26:39;;;;;;;28.23;14.10;;;;;;;;;;5078707;28;20477;-85
2024/01/28 06:29:05;;;;;;;27.65;14.80;;;;;;;;;;5104477;28;20445;-84
2024/01/28 06:31:31;;;;;;;30.08;14.50;;;;;;;;;;5098354;28;20392;-83
2024/01/28 06:33:57;;;;;;;26.55;14.50;;;;;;;;;;5080828;28;20420;-83
2024/01/28 06:36:23;;;;;;;23.65;14.35;;;;;;;;;;5093949;28;20403;-83
2024/01/28 06:38:49;;;;;;;25.15;14.02;;;;;;;;;;5110737;27;20465;-83
2024/01/28 06:41:16;;;;;;;27.65;14.35;;;;;;;;;;5115248;28;20400;-83
2024/01/28 06:43:42;;;;;;;23.67;13.45;;;;;;;;;;5082912;28;20886;-83
2024/01/28 06:46:08;;;;;;;25.73;13.05;;;;;;;;;;5080615;28;20903;-83
2024/01/28 06:48:34;;;;;;;23.20;13.95;;;;;;;;;;5107181;28;20497;-83
2024/01/28 06:51:03;;;;;;;25.35;14.15;;;;;;;;;;5120844;27;20403;-83
2024/01/28 06:53:29;;;;;;;24.48;14.00;;;;;;;;;;5087855;28;20452;-83
2024/01/28 06:55:55;;;;;;;27.40;13.63;;;;;;;;;;5115168;27;20392;-83
2024/01/28 06:58:22;;;;;;;24.00;13.80;;;;;;;;;;5126090;27;20527;-83
2024/01/28 07:00:48;;;;;;;28.40;14.63;;;;;;;;;;5095222;28;20429;-83
2024/01/28 07:03:14;;;;;;;24.93;14.10;;;;;;;;;;5113951;27;20408;-83
2024/01/28 07:05:40;;;;;;;26.63;14.07;;;;;;;;;;5113110;28;20396;-83
2024/01/28 07:08:08;;;;;;;27.35;13.48;;;;;;;;;;5091337;28;20401;-83
2024/01/28 07:10:34;;;;;;;25.48;13.98;;;;;;;;;;5116148;27;20400;-83
2024/01/28 07:13:03;;;;;;;26.25;14.02;;;;;;;;;;5096244;28;20400;-83
2024/01/28 07:15:29;;;;;;;22.92;14.35;;;;;;;;;;5088329;28;20402;-83
2024/01/28 07:17:55;;;;;;;23.95;13.65;;;;;;;;;;5120650;27;20444;-83
2024/01/28 07:20:22;;;;;;;25.98;13.82;;;;;;;;;;5110981;28;20414;-83
2024/01/28 07:22:48;;;;;;;24.50;13.55;;;;;;;;;;5111152;28;20454;-84
2024/01/28 07:25:14;;;;;;;22.45;12.63;;;;;;;;;;5096982;28;20414;-84
2024/01/28 07:27:40;;;;;;;22.48;12.90;;;;;;;;;;5113069;27;20402;-83
2024/01/28 07:30:07;;;;;;;21.13;12.50;;;;;;;;;;5078888;28;20594;-83
2024/01/28 07:32:33;;;;;;;23.80;12.75;;;;;;;;;;5125903;27;20392;-83
2024/01/28 07:34:59;;;;;;;25.25;12.40;;;;;;;;;;5101687;27;20414;-83
2024/01/28 07:37:25;;;;;;;23.33;12.30;;;;;;;;;;5096042;27;20401;-83
2024/01/28 07:39:52;;;;;;;23.30;12.43;;;;;;;;;;5109224;27;20413;-83
2024/01/28 07:42:18;;;;;;;22.58;11.77;;;;;;;;;;5077752;28;20800;-84
2024/01/28 07:44:44;;;;;;;24.97;11.50;;;;;;;;;;5112098;27;20865;-83
2024/01/28 07:47:11;;;;;;;21.52;10.85;;;;;;;;;;5124609;27;20419;-83
2024/01/28 07:49:37;;;;;;;23.60;11.55;;;;;;;;;;5088607;28;20466;-84
2024/01/28 07:52:03;;;;;;;17.20;10.15;;;;;;;;;;5100195;28;20412;-83
2024/01/28 07:54:29;;;;;;;21.02;10.63;;;;;;;;;;5103789;28;20402;-83
2024/01/28 07:56:55;;;;;;;18.75;10.40;;;;;;;;;;5090955;28;20451;-84
2024/01/28 07:59:21;;;;;;;18.88;10.40;;;;;;;;;;5073693;28;20414;-85
2024/01/28 08:01:48;;;;;;;17.75;10.15;;;;;;;;;;5120672;27;20400;-84
2024/01/28 08:04:14;;;;;;;19.85;10.30;;;;;;;;;;5104103;27;20744;-84
2024/01/28 08:06:40;;;;;;;24.00;10.32;;;;;;;;;;5106925;28;20414;-84
2024/01/28 08:09:06;;;;;;;18.63;10.50;;;;;;;;;;5107326;28;20416;-84
2024/01/28 08:11:33;;;;;;;20.42;10.30;;;;;;;;;;5105525;28;20526;-84
2024/01/28 08:13:59;;;;;;;19.70;10.27;;;;;;;;;;5113287;27;20400;-84
2024/01/28 08:16:25;;;;;;;19.13;9.77;;;;;;;;;;5110188;27;20394;-84
2024/01/28 08:18:52;;;;;;;28.25;10.18;;;;;;;;;;5076981;28;20886;-84
2024/01/28 08:21:18;;;;;;;21.00;9.90;;;;;;;;;;5107333;27;20411;-84
2024/01/28 08:23:44;;;;;;;22.25;9.55;;;;;;;;;;5144033;27;20473;-84
2024/01/28 08:26:12;;;;;;;17.58;8.52;;;;;;;;;;5110512;27;20435;-84
2024/01/28 08:28:38;;;;;;;15.33;8.60;;;;;;;;;;5083600;28;20493;-84
2024/01/28 08:31:05;;;;;;;17.60;8.80;;;;;;;;;;5134238;27;20539;-85
2024/01/28 08:33:31;;;;;;;16.73;8.32;;;;;;;;;;5119348;27;20408;-85
2024/01/28 08:35:57;;;;;;;17.45;9.00;;;;;;;;;;5089814;28;20403;-85
2024/01/28 08:38:23;;;;;;;17.95;8.93;;;;;;;;;;5095665;28;20404;-84
2024/01/28 08:40:49;;;;;;;18.45;8.98;;;;;;;;;;5087561;28;20423;-84
2024/01/28 08:43:15;;;;;;;19.08;8.90;;;;;;;;;;5105643;28;20394;-84
2024/01/28 08:45:43;;;;;;;17.42;8.60;;;;;;;;;;5093508;28;20423;-84
2024/01/28 08:48:09;;;;;;;17.67;8.02;;;;;;;;;;5069377;28;20909;-84
2024/01/28 08:50:37;;;;;;;15.95;8.45;;;;;;;;;;5109333;28;20396;-84
2024/01/28 08:53:03;;;;;;;17.80;7.97;;;;;;;;;;5078247;28;20403;-84
2024/01/28 08:55:29;;;;;;;16.15;8.20;;;;;;;;;;5085186;28;20402;-84
2024/01/28 08:57:55;;;;;;;13.00;7.75;;;;;;;;;;5085941;28;20902;-83
2024/01/28 09:00:22;;;;;;;14.73;7.50;;;;;;;;;;5076628;28;20449;-83
2024/01/28 09:02:48;;;;;;;15.40;7.13;;;;;;;;;;5089976;28;20497;-84
2024/01/28 09:05:14;;;;;;;16.48;7.57;;;;;;;;;;5130210;27;20400;-84
2024/01/28 09:07:41;;;;;;;13.50;6.72;;;;;;;;;;5135489;27;20407;-84
2024/01/28 09:10:08;;;;;;;14.30;6.40;;;;;;;;;;5088625;28;20400;-84
2024/01/28 09:12:34;;;;;;;13.20;6.80;;;;;;;;;;5095337;28;20404;-83
2024/01/28 09:15:00;;;;;;;13.07;6.38;;;;;;;;;;5083842;28;20424;-83
2024/01/28 09:17:26;;;;;;;13.45;7.22;;;;;;;;;;5082481;28;20412;-84
2024/01/28 09:19:52;;;;;;;15.17;8.10;;;;;;;;;;5093578;28;20763;-84
2024/01/28 09:22:20;;;;;;;14.40;8.48;;;;;;;;;;5104381;27;20555;-84
2024/01/28 09:24:46;;;;;;;15.18;8.15;;;;;;;;;;5094200;28;20412;-83
2024/01/28 09:27:12;;;;;;;17.60;7.50;;;;;;;;;;5081454;28;20443;-84
2024/01/28 09:29:38;;;;;;;16.98;8.52;;;;;;;;;;5134532;27;20485;-83
2024/01/28 09:32:05;;;;;;;17.65;8.45;;;;;;;;;;5108167;28;20439;-84
2024/01/28 09:34:31;;;;;;;19.88;9.85;;;;;;;;;;5112551;27;20758;-84
2024/01/28 09:36:57;;;;;;;17.50;8.60;;;;;;;;;;5098055;27;20484;-84
2024/01/28 09:39:23;;;;;;;14.25;7.78;;;;;;;;;;5115877;27;20443;-85
2024/01/28 09:42:22;;;;;;;12.10;7.32;;;;;;;;;;5101524;28;20427;-84
2024/01/28 09:44:49;;;;;;;13.27;7.10;;;;;;;;;;5086817;27;20422;-85
2024/01/28 09:47:16;;;;;;;13.80;6.53;;;;;;;;;;5093000;28;20408;-84
2024/01/28 09:49:42;;;;;;;14.35;6.95;;;;;;;;;;5094035;28;20404;-85
2024/01/28 09:52:12;;;;;;;12.60;6.10;;;;;;;;;;5093720;28;20404;-85
2024/01/28 09:54:39;;;;;;;11.40;5.72;;;;;;;;;;5141516;27;20427;-85
2024/01/28 09:57:07;;;;;;;15.65;6.35;;;;;;;;;;5124662;28;20392;-85
2024/01/28 09:59:36;;;;;;;12.75;5.20;;;;;;;;;;5083690;28;20453;-85
2024/01/28 10:02:03;;;;;;;15.00;5.87;;;;;;;;;;5097867;28;20459;-84
2024/01/28 10:04:30;;;;;;;12.75;5.78;;;;;;;;;;5085711;28;20412;-83
2024/01/28 10:06:59;;;;;;;10.85;5.43;;;;;;;;;;5087088;28;20396;-84
2024/01/28 10:09:26;;;;;;;10.52;5.40;;;;;;;;;;5088112;28;20471;-82
2024/01/28 10:11:52;;;;;;;12.68;5.80;;;;;;;;;;5089553;28;20483;-85
2024/01/28 10:14:19;;;;;;;9.27;4.80;;;;;;;;;;5091752;28;20416;-85
2024/01/28 10:16:49;;;;;;;10.30;5.00;;;;;;;;;;5093021;28;20471;-85
2024/01/28 10:19:15;;;;;;;12.17;4.90;;;;;;;;;;5093032;28;20445;-84
2024/01/28 10:21:42;;;;;;;11.15;5.00;;;;;;;;;;5109423;28;20431;-85
2024/01/28 10:24:12;;;;;;;8.93;4.87;;;;;;;;;;5076967;28;20455;-84
2024/01/28 10:26:38;;;;;;;12.02;5.15;;;;;;;;;;5105158;28;20400;-83
2024/01/28 10:29:06;;;;;;;8.98;4.78;;;;;;;;;;5087307;28;20480;-84
2024/01/28 10:31:33;;;;;;;11.93;4.82;;;;;;;;;;5092924;28;20897;-84
2024/01/28 10:33:59;;;;;;;12.05;4.85;;;;;;;;;;5099628;28;20727;-84
2024/01/28 10:36:26;;;;;;;10.15;4.75;;;;;;;;;;5098000;28;20400;-85
2024/01/28 10:38:52;;;;;;;8.50;4.45;;;;;;;;;;5101436;28;20742;-84
2024/01/28 10:41:19;;;;;;;11.98;5.20;;;;;;;;;;5103999;28;20424;-83
2024/01/28 10:43:57;;;;;;;10.65;4.80;;;;;;;;;;5103847;28;20424;-84
2024/01/28 10:46:28;;;;;;;9.05;3.95;;;;;;;;;;5108648;28;20416;-84
2024/01/28 10:48:57;;;;;;;8.35;3.83;;;;;;;;;;5139013;27;20398;-85
2024/01/28 10:51:24;;;;;;;9.38;3.90;;;;;;;;;;5107179;28;20420;-84
2024/01/28 10:53:51;;;;;;;6.90;3.60;;;;;;;;;;5081601;28;20402;-85
2024/01/28 10:56:27;;;;;;;11.45;4.03;;;;;;;;;;5092606;28;20508;-84
2024/01/28 10:58:53;;;;;;;10.15;4.10;;;;;;;;;;5102020;28;20426;-84
2024/01/28 11:01:20;;;;;;;13.10;4.13;;;;;;;;;;5109182;28;21012;-84
2024/01/28 11:03:53;;;;;;;10.60;4.15;;;;;;;;;;5138996;27;20748;-84
2024/01/28 11:06:20;;;;;;;7.45;3.40;;;;;;;;;;5091646;28;20396;-86
2024/01/28 11:11:54;;;;;;;6.20;3.38;;;;;;;;;;5105634;28;20396;-83
2024/01/28 11:14:20;;;;;;;8.20;3.70;;;;;;;;;;5106286;28;20400;-84
2024/01/28 11:16:51;;;;;;;8.35;3.67;;;;;;;;;;5076250;28;20428;-83
2024/01/28 11:19:17;;;;;;;7.40;3.80;;;;;;;;;;5111376;28;20407;-83
2024/01/28 11:22:01;;;;;;;6.93;3.75;;;;;;;;;;5148431;27;20405;-83
2024/01/28 11:24:41;;;;;;;7.38;3.40;;;;;;;;;;5137616;27;20961;-83
2024/01/28 11:27:07;;;;;;;7.73;3.47;;;;;;;;;;5121511;27;20485;-84
2024/01/28 11:29:33;;;;;;;7.88;3.78;;;;;;;;;;5109873;28;20522;-83
2024/01/28 11:32:04;;;;;;;8.00;3.53;;;;;;;;;;5147594;27;20407;-83
2024/01/28 11:34:31;;;;;;;6.80;3.40;;;;;;;;;;5082414;28;20432;-83
2024/01/28 11:36:59;;;;;;;7.97;3.45;;;;;;;;;;5089711;28;20453;-83
2024/01/28 11:39:42;;;;;;;8.73;3.92;;;;;;;;;;5084397;28;20933;-84
2024/01/28 11:42:09;;;;;;;7.03;3.63;;;;;;;;;;5101594;27;20408;-83
2024/01/28 11:44:35;;;;;;;7.78;3.63;;;;;;;;;;5079338;28;20442;-83
2024/01/28 11:47:10;;;;;;;7.68;3.65;;;;;;;;;;5090018;28;20398;-84
2024/01/28 11:49:36;;;;;;;9.53;4.23;;;;;;;;;;5125086;27;20407;-84
2024/01/28 11:52:04;;;;;;;8.70;3.22;;;;;;;;;;5103521;28;20937;-84
2024/01/28 11:54:30;;;;;;;6.72;3.17;;;;;;;;;;5099757;28;20400;-84
2024/01/28 11:56:56;;;;;;;8.20;3.63;;;;;;;;;;5104495;28;20884;-84
2024/01/28 11:59:22;;;;;;;5.63;3.15;;;;;;;;;;5148039;27;20420;-84
2024/01/28 12:01:53;;;;;;;6.40;3.25;;;;;;;;;;5148764;27;20388;-85
2024/01/28 12:04:20;;;;;;;7.07;3.53;;;;;;;;;;5116020;27;20402;-85
2024/01/28 12:06:47;;;;;;;6.90;3.40;;;;;;;;;;5092262;28;21025;-84
2024/01/28 12:09:13;;;;;;;6.25;3.33;;;;;;;;;;5131768;27;20404;-84
2024/01/28 12:11:39;;;;;;;7.10;3.20;;;;;;;;;;5096323;28;20398;-84
2024/01/28 12:14:05;;;;;;;6.20;3.30;;;;;;;;;;5094737;28;20396;-84
2024/01/28 12:16:31;;;;;;;6.55;3.53;;;;;;;;;;5079167;28;20396;-84
2024/01/28 12:18:57;;;;;;;7.80;3.35;;;;;;;;;;5095821;28;20414;-84
2024/01/28 12:21:24;;;;;;;6.40;3.30;;;;;;;;;;5053719;28;20430;-84
2024/01/28 12:23:57;;;;;;;8.20;3.20;;;;;;;;;;5085336;28;20409;-84
2024/01/28 12:26:28;;;;;;;7.35;3.22;;;;;;;;;;5084627;28;20404;-84
2024/01/28 12:29:09;;;;;;;;;;;;;;;;;;;;;
2024/01/28 12:31:45;;;;;;;8.80;3.70;;;;;;;;;;5071554;28;20422;-84
2024/01/28 12:34:17;;;;;;;6.80;3.67;;;;;;;;;;5054792;28;20878;-84
2024/01/28 12:36:43;;;;;;;7.55;3.20;;;;;;;;;;5065434;28;20415;-84
2024/01/28 12:39:29;;;;;;;7.05;3.08;;;;;;;;;;5054508;28;20408;-84
2024/01/28 12:41:56;;;;;;;7.20;3.47;;;;;;;;;;5054479;28;20404;-84
2024/01/28 12:44:22;;;;;;;5.35;2.80;;;;;;;;;;5071437;28;20395;-84
2024/01/28 12:46:50;;;;;;;6.28;2.97;;;;;;;;;;5071413;28;20400;-85
2024/01/28 12:49:33;;;;;;;8.00;3.08;;;;;;;;;;5071039;28;20401;-84
2024/01/28 12:52:04;;;;;;;6.40;3.03;;;;;;;;;;5047424;28;20907;-84
2024/01/28 12:54:31;;;;;;;7.53;3.30;;;;;;;;;;5072100;28;20399;-84
2024/01/28 12:57:00;;;;;;;7.00;3.20;;;;;;;;;;5049761;28;20858;-84
2024/01/28 12:59:26;;;;;;;9.40;3.10;;;;;;;;;;5054093;28;20432;-84
2024/01/28 13:01:52;;;;;;;10.15;3.45;;;;;;;;;;5044964;28;20405;-85
2024/01/28 13:04:19;;;;;;;6.05;3.05;;;;;;;;;;5034999;28;20401;-85
2024/01/28 13:06:45;;;;;;;7.00;3.00;;;;;;;;;;5036036;28;20412;-84
2024/01/28 13:09:15;;;;;;;6.90;3.38;;;;;;;;;;5047965;28;20428;-84
2024/01/28 13:11:49;;;;;;;9.32;3.50;;;;;;;;;;5071004;28;20493;-83
2024/01/28 13:14:15;;;;;;;6.22;3.05;;;;;;;;;;5054740;28;20399;-83
2024/01/28 13:17:05;;;;;;;6.72;3.15;;;;;;;;;;5069760;28;20402;-84
2024/01/28 13:19:33;;;;;;;6.63;3.08;;;;;;;;;;5051467;28;20430;-84
2024/01/28 13:21:59;;;;;;;7.20;3.28;;;;;;;;;;5120129;27;20429;-84
2024/01/28 13:24:25;;;;;;;9.48;3.35;;;;;;;;;;5095433;28;20400;-84
2024/01/28 13:26:52;;;;;;;7.30;3.35;;;;;;;;;;5125455;27;20424;-84
2024/01/28 13:29:22;;;;;;;7.10;2.93;;;;;;;;;;5111380;28;20749;-84
2024/01/28 13:31:48;;;;;;;6.88;2.80;;;;;;;;;;5109236;28;20419;-84
2024/01/28 13:34:17;;;;;;;7.72;3.70;;;;;;;;;;5145338;27;20397;-84
2024/01/28 13:36:43;;;;;;;6.38;3.28;;;;;;;;;;5091029;28;20424;-85
2024/01/28 13:39:10;;;;;;;5.38;3.00;;;;;;;;;;5089588;28;20883;-84
2024/01/28 13:41:44;;;;;;;7.35;3.90;;;;;;;;;;5145661;27;20399;-85
2024/01/28 13:44:11;;;;;;;7.07;3.35;;;;;;;;;;5081842;28;20394;-83
2024/01/28 13:46:37;;;;;;;5.03;2.92;;;;;;;;;;5102875;28;20491;-83
2024/01/28 13:49:04;;;;;;;6.85;3.00;;;;;;;;;;5096580;28;20403;-84
2024/01/28 13:51:31;;;;;;;8.27;3.40;;;;;;;;;;5107028;28;20408;-83
2024/01/28 13:53:57;;;;;;;7.37;3.57;;;;;;;;;;5095800;28;20400;-82
2024/01/28 13:56:24;;;;;;;9.13;3.70;;;;;;;;;;5105510;28;20423;-83
2024/01/28 13:58:52;;;;;;;5.53;2.97;;;;;;;;;;5088996;28;20406;-84
2024/01/28 14:01:20;;;;;;;6.80;3.40;;;;;;;;;;5091094;28;20424;-83
2024/01/28 14:03:46;;;;;;;8.68;3.17;;;;;;;;;;5078195;28;20392;-83
2024/01/28 14:06:15;;;;;;;6.57;3.63;;;;;;;;;;5109983;28;20392;-82
2024/01/28 14:08:41;;;;;;;5.95;3.20;;;;;;;;;;5107297;28;20423;-83
2024/01/28 14:11:07;;;;;;;7.45;3.15;;;;;;;;;;5099910;28;20396;-82
2024/01/28 14:13:33;;;;;;;6.63;3.35;;;;;;;;;;5078144;28;20403;-83
2024/01/28 14:16:00;;;;;;;7.47;3.20;;;;;;;;;;5090487;28;20409;-83
2024/01/28 14:18:26;;;;;;;6.65;3.20;;;;;;;;;;5085052;28;20416;-82
2024/01/28 14:20:52;;;;;;;5.85;3.08;;;;;;;;;;5102788;28;20509;-81
2024/01/28 14:23:18;;;;;;;5.88;3.08;;;;;;;;;;5102696;28;20396;-81
2024/01/28 14:25:44;;;;;;;7.40;3.20;;;;;;;;;;5090100;28;20514;-82
2024/01/28 14:28:10;;;;;;;6.55;3.28;;;;;;;;;;5092132;28;20443;-81